sensor_id;sensor_type;location;lat;lon;timestamp;temperature;humidity
50570;DHT22;36525;49.398;7.614;2023-01-25T00:00:04;0.80;99.90
50570;DHT22;36525;49.398;7.614;2023-01-25T00:02:31;0.80;99.90
50570;DHT22;36525;49.398;7.614;2023-01-25T00:04:59;0.80;99.90
50570;DHT22;36525;49.398;7.614;2023-01-25T00:07:26;0.80;99.90
50570;DHT22;36525;49.398;7.614;2023-01-25T00:09:53;0.80;99.90
50570;DHT22;36525;49.398;7.614;2023-01-25T00:12:20;0.70;99.90
50570;DHT22;36525;49.398;7.614;2023-01-25T00:14:47;0.70;99.90
50570;DHT22;36525;49.398;7.614;2023-01-25T00:17:13;0.70;99.90
50570;DHT22;36525;49.398;7.614;2023-01-25T00:19:41;0.80;99.90
50570;DHT22;36525;49.398;7.614;2023-01-25T00:22:08;0.80;99.90
50570;DHT22;36525;49.398;7.614;2023-01-25T00:24:35;0.80;99.90
50570;DHT22;36525;49.398;7.614;2023-01-25T00:27:02;0.70;99.90
50570;DHT22;36525;49.398;7.614;2023-01-25T00:29:29;0.70;99.90
50570;DHT22;36525;49.398;7.614;2023-01-25T00:39:24;0.60;99.90
50570;DHT22;36525;49.398;7.614;2023-01-25T00:41:53;0.60;99.90
50570;DHT22;36525;49.398;7.614;2023-01-25T00:44:20;0.60;99.90
50570;DHT22;36525;49.398;7.614;2023-01-25T00:46:48;0.50;99.90
50570;DHT22;36525;49.398;7.614;2023-01-25T00:49:23;0.60;99.90
50570;DHT22;36525;49.398;7.614;2023-01-25T00:51:52;0.60;99.90
50570;DHT22;36525;49.398;7.614;2023-01-25T00:54:21;0.60;99.90
50570;DHT22;36525;49.398;7.614;2023-01-25T00:56:49;0.60;99.90
50570;DHT22;36525;49.398;7.614;2023-01-25T00:59:19;0.50;99.90
50570;DHT22;36525;49.398;7.614;2023-01-25T01:01:46;0.60;99.90
50570;DHT22;36525;49.398;7.614;2023-01-25T01:04:13;0.60;99.90
50570;DHT22;36525;49.398;7.614;2023-01-25T01:06:41;0.50;99.90
50570;DHT22;36525;49.398;7.614;2023-01-25T01:09:16;0.60;99.90
50570;DHT22;36525;49.398;7.614;2023-01-25T01:11:44;0.50;99.90
50570;DHT22;36525;49.398;7.614;2023-01-25T01:14:11;0.60;99.90
50570;DHT22;36525;49.398;7.614;2023-01-25T01:16:39;0.60;99.90
50570;DHT22;36525;49.398;7.614;2023-01-25T01:19:07;0.70;99.90
50570;DHT22;36525;49.398;7.614;2023-01-25T01:21:34;0.70;99.90
50570;DHT22;36525;49.398;7.614;2023-01-25T01:24:01;0.70;99.90
50570;DHT22;36525;49.398;7.614;2023-01-25T01:26:29;0.70;99.90
50570;DHT22;36525;49.398;7.614;2023-01-25T01:28:57;0.70;99.90
50570;DHT22;36525;49.398;7.614;2023-01-25T01:31:25;0.70;99.90
50570;DHT22;36525;49.398;7.614;2023-01-25T01:33:54;0.70;99.90
50570;DHT22;36525;49.398;7.614;2023-01-25T01:36:24;0.60;99.90
50570;DHT22;36525;49.398;7.614;2023-01-25T01:38:52;0.60;99.90
50570;DHT22;36525;49.398;7.614;2023-01-25T01:41:19;0.60;99.90
50570;DHT22;36525;49.398;7.614;2023-01-25T01:43:47;0.50;99.90
50570;DHT22;36525;49.398;7.614;2023-01-25T01:46:37;0.60;99.90
50570;DHT22;36525;49.398;7.614;2023-01-25T01:49:34;0.50;99.90
50570;DHT22;36525;49.398;7.614;2023-01-25T01:52:09;0.50;99.90
50570;DHT22;36525;49.398;7.614;2023-01-25T01:55:21;0.60;99.90
50570;DHT22;36525;49.398;7.614;2023-01-25T01:57:42;0.60;99.90
50570;DHT22;36525;49.398;7.614;2023-01-25T02:00:15;0.50;99.90
50570;DHT22;36525;49.398;7.614;2023-01-25T02:02:46;0.60;99.90
50570;DHT22;36525;49.398;7.614;2023-01-25T02:08:23;0.60;99.90
50570;DHT22;36525;49.398;7.614;2023-01-25T02:10:51;0.60;99.90
50570;DHT22;36525;49.398;7.614;2023-01-25T02:13:19;0.70;99.90
50570;DHT22;36525;49.398;7.614;2023-01-25T02:15:48;0.70;99.90
50570;DHT22;36525;49.398;7.614;2023-01-25T02:18:17;0.70;99.90
50570;DHT22;36525;49.398;7.614;2023-01-25T02:20:47;0.70;99.90
50570;DHT22;36525;49.398;7.614;2023-01-25T02:26:07;0.60;99.90
50570;DHT22;36525;49.398;7.614;2023-01-25T02:28:47;0.60;99.90
50570;DHT22;36525;49.398;7.614;2023-01-25T02:31:18;0.60;99.90
50570;DHT22;36525;49.398;7.614;2023-01-25T02:33:45;0.70;99.90
50570;DHT22;36525;49.398;7.614;2023-01-25T02:38:52;0.70;99.90
50570;DHT22;36525;49.398;7.614;2023-01-25T02:44:02;0.80;99.90
50570;DHT22;36525;49.398;7.614;2023-01-25T02:46:36;0.80;99.90
50570;DHT22;36525;49.398;7.614;2023-01-25T02:49:05;0.80;99.90
50570;DHT22;36525;49.398;7.614;2023-01-25T02:51:38;0.80;99.90
50570;DHT22;36525;49.398;7.614;2023-01-25T02:54:09;0.70;99.90
50570;DHT22;36525;49.398;7.614;2023-01-25T02:56:38;0.70;99.90
50570;DHT22;36525;49.398;7.614;2023-01-25T02:59:09;0.80;99.90
50570;DHT22;36525;49.398;7.614;2023-01-25T03:01:41;0.80;99.90
50570;DHT22;36525;49.398;7.614;2023-01-25T03:04:08;0.80;99.90
50570;DHT22;36525;49.398;7.614;2023-01-25T03:06:37;0.80;99.90
50570;DHT22;36525;49.398;7.614;2023-01-25T03:09:05;0.70;99.90
50570;DHT22;36525;49.398;7.614;2023-01-25T03:11:34;0.70;99.90
50570;DHT22;36525;49.398;7.614;2023-01-25T03:14:01;0.70;99.90
50570;DHT22;36525;49.398;7.614;2023-01-25T03:16:29;0.70;99.90
50570;DHT22;36525;49.398;7.614;2023-01-25T03:18:57;0.60;99.90
50570;DHT22;36525;49.398;7.614;2023-01-25T03:21:25;0.70;99.90
50570;DHT22;36525;49.398;7.614;2023-01-25T03:23:58;0.70;99.90
50570;DHT22;36525;49.398;7.614;2023-01-25T03:26:26;0.60;99.90
50570;DHT22;36525;49.398;7.614;2023-01-25T03:28:56;0.60;99.90
50570;DHT22;36525;49.398;7.614;2023-01-25T03:31:23;0.60;99.90
50570;DHT22;36525;49.398;7.614;2023-01-25T03:33:50;0.70;99.90
50570;DHT22;36525;49.398;7.614;2023-01-25T03:36:18;0.70;99.90
50570;DHT22;36525;49.398;7.614;2023-01-25T03:38:45;0.60;99.90
50570;DHT22;36525;49.398;7.614;2023-01-25T03:41:12;0.60;99.90
50570;DHT22;36525;49.398;7.614;2023-01-25T03:43:40;0.60;99.90
50570;DHT22;36525;49.398;7.614;2023-01-25T03:46:08;0.60;99.90
50570;DHT22;36525;49.398;7.614;2023-01-25T03:48:38;0.60;99.90
50570;DHT22;36525;49.398;7.614;2023-01-25T03:51:05;0.60;99.90
50570;DHT22;36525;49.398;7.614;2023-01-25T03:53:32;0.70;99.90
50570;DHT22;36525;49.398;7.614;2023-01-25T03:56:01;0.80;99.90
50570;DHT22;36525;49.398;7.614;2023-01-25T03:58:30;0.80;99.90
50570;DHT22;36525;49.398;7.614;2023-01-25T04:00:59;0.80;99.90
50570;DHT22;36525;49.398;7.614;2023-01-25T04:03:28;0.80;99.90
50570;DHT22;36525;49.398;7.614;2023-01-25T04:05:57;0.80;99.90
50570;DHT22;36525;49.398;7.614;2023-01-25T04:08:25;0.70;99.90
50570;DHT22;36525;49.398;7.614;2023-01-25T04:10:54;0.70;99.90
50570;DHT22;36525;49.398;7.614;2023-01-25T04:13:23;0.60;99.90
50570;DHT22;36525;49.398;7.614;2023-01-25T04:15:50;0.60;99.90
50570;DHT22;36525;49.398;7.614;2023-01-25T04:18:18;0.60;99.90
50570;DHT22;36525;49.398;7.614;2023-01-25T04:20:45;0.60;99.90
50570;DHT22;36525;49.398;7.614;2023-01-25T04:23:12;0.60;99.90
50570;DHT22;36525;49.398;7.614;2023-01-25T04:25:39;0.60;99.90
50570;DHT22;36525;49.398;7.614;2023-01-25T04:28:06;0.70;99.90
50570;DHT22;36525;49.398;7.614;2023-01-25T04:30:33;0.70;99.90
50570;DHT22;36525;49.398;7.614;2023-01-25T04:33:04;0.60;99.90
50570;DHT22;36525;49.398;7.614;2023-01-25T04:35:31;0.60;99.90
50570;DHT22;36525;49.398;7.614;2023-01-25T04:37:59;0.60;99.90
50570;DHT22;36525;49.398;7.614;2023-01-25T04:40:26;0.60;99.90
50570;DHT22;36525;49.398;7.614;2023-01-25T04:42:53;0.60;99.90
50570;DHT22;36525;49.398;7.614;2023-01-25T04:45:21;0.50;99.90
50570;DHT22;36525;49.398;7.614;2023-01-25T04:47:49;0.60;99.90
50570;DHT22;36525;49.398;7.614;2023-01-25T04:50:21;0.40;99.90
50570;DHT22;36525;49.398;7.614;2023-01-25T04:52:48;0.50;99.90
50570;DHT22;36525;49.398;7.614;2023-01-25T04:55:15;0.50;99.90
50570;DHT22;36525;49.398;7.614;2023-01-25T04:57:42;0.40;99.90
50570;DHT22;36525;49.398;7.614;2023-01-25T05:00:10;0.50;99.90
50570;DHT22;36525;49.398;7.614;2023-01-25T05:02:38;0.60;99.90
50570;DHT22;36525;49.398;7.614;2023-01-25T05:05:05;0.50;99.90
50570;DHT22;36525;49.398;7.614;2023-01-25T05:07:33;0.50;99.90
50570;DHT22;36525;49.398;7.614;2023-01-25T05:10:00;0.50;99.90
50570;DHT22;36525;49.398;7.614;2023-01-25T05:12:28;0.50;99.90
50570;DHT22;36525;49.398;7.614;2023-01-25T05:14:55;0.60;99.90
50570;DHT22;36525;49.398;7.614;2023-01-25T05:17:22;0.50;99.90
50570;DHT22;36525;49.398;7.614;2023-01-25T05:19:49;0.50;99.90
50570;DHT22;36525;49.398;7.614;2023-01-25T05:22:17;0.50;99.90
50570;DHT22;36525;49.398;7.614;2023-01-25T05:24:47;0.50;99.90
50570;DHT22;36525;49.398;7.614;2023-01-25T05:27:17;0.50;99.90
50570;DHT22;36525;49.398;7.614;2023-01-25T05:29:45;0.50;99.90
50570;DHT22;36525;49.398;7.614;2023-01-25T05:32:20;0.50;99.90
50570;DHT22;36525;49.398;7.614;2023-01-25T05:34:48;0.50;99.90
50570;DHT22;36525;49.398;7.614;2023-01-25T05:37:17;0.50;99.90
50570;DHT22;36525;49.398;7.614;2023-01-25T05:39:45;0.50;99.90
50570;DHT22;36525;49.398;7.614;2023-01-25T05:42:14;0.50;99.90
50570;DHT22;36525;49.398;7.614;2023-01-25T05:44:43;0.50;99.90
50570;DHT22;36525;49.398;7.614;2023-01-25T05:47:14;0.60;99.90
50570;DHT22;36525;49.398;7.614;2023-01-25T05:49:43;0.50;99.90
50570;DHT22;36525;49.398;7.614;2023-01-25T05:52:14;0.50;99.90
50570;DHT22;36525;49.398;7.614;2023-01-25T05:54:42;0.50;99.90
50570;DHT22;36525;49.398;7.614;2023-01-25T05:57:09;0.60;99.90
50570;DHT22;36525;49.398;7.614;2023-01-25T05:59:36;0.50;99.90
50570;DHT22;36525;49.398;7.614;2023-01-25T06:02:03;0.40;99.90
50570;DHT22;36525;49.398;7.614;2023-01-25T06:04:30;0.50;99.90
50570;DHT22;36525;49.398;7.614;2023-01-25T06:06:58;0.40;99.90
50570;DHT22;36525;49.398;7.614;2023-01-25T06:09:25;0.50;99.90
50570;DHT22;36525;49.398;7.614;2023-01-25T06:11:53;0.60;99.90
50570;DHT22;36525;49.398;7.614;2023-01-25T06:14:20;0.60;99.90
50570;DHT22;36525;49.398;7.614;2023-01-25T06:16:49;0.70;99.90
50570;DHT22;36525;49.398;7.614;2023-01-25T06:19:16;0.60;99.90
50570;DHT22;36525;49.398;7.614;2023-01-25T06:21:43;0.60;99.90
50570;DHT22;36525;49.398;7.614;2023-01-25T06:24:10;0.60;99.90
50570;DHT22;36525;49.398;7.614;2023-01-25T06:26:37;0.60;99.90
50570;DHT22;36525;49.398;7.614;2023-01-25T06:29:05;0.60;99.90
50570;DHT22;36525;49.398;7.614;2023-01-25T06:31:33;0.60;99.90
50570;DHT22;36525;49.398;7.614;2023-01-25T06:34:00;0.60;99.90
50570;DHT22;36525;49.398;7.614;2023-01-25T06:36:30;0.60;99.90
50570;DHT22;36525;49.398;7.614;2023-01-25T06:38:57;0.60;99.90
50570;DHT22;36525;49.398;7.614;2023-01-25T06:41:25;0.50;99.90
50570;DHT22;36525;49.398;7.614;2023-01-25T06:43:52;0.60;99.90
50570;DHT22;36525;49.398;7.614;2023-01-25T06:46:22;0.60;99.90
50570;DHT22;36525;49.398;7.614;2023-01-25T06:48:49;0.50;99.90
50570;DHT22;36525;49.398;7.614;2023-01-25T06:51:17;0.60;99.90
50570;DHT22;36525;49.398;7.614;2023-01-25T06:53:45;0.60;99.90
50570;DHT22;36525;49.398;7.614;2023-01-25T06:56:19;0.60;99.90
50570;DHT22;36525;49.398;7.614;2023-01-25T06:58:48;0.60;99.90
50570;DHT22;36525;49.398;7.614;2023-01-25T07:01:19;0.60;99.90
50570;DHT22;36525;49.398;7.614;2023-01-25T07:03:58;0.70;99.90
50570;DHT22;36525;49.398;7.614;2023-01-25T07:06:29;0.60;99.90
50570;DHT22;36525;49.398;7.614;2023-01-25T07:09:07;0.60;99.90
50570;DHT22;36525;49.398;7.614;2023-01-25T07:11:35;0.50;99.90
50570;DHT22;36525;49.398;7.614;2023-01-25T07:14:03;0.60;99.90
50570;DHT22;36525;49.398;7.614;2023-01-25T07:16:30;0.60;99.90
50570;DHT22;36525;49.398;7.614;2023-01-25T07:19:03;0.60;99.90
50570;DHT22;36525;49.398;7.614;2023-01-25T07:21:33;0.50;99.90
50570;DHT22;36525;49.398;7.614;2023-01-25T07:24:02;0.60;99.90
50570;DHT22;36525;49.398;7.614;2023-01-25T07:26:30;0.60;99.90
50570;DHT22;36525;49.398;7.614;2023-01-25T07:28:58;0.60;99.90
50570;DHT22;36525;49.398;7.614;2023-01-25T07:31:26;0.60;99.90
50570;DHT22;36525;49.398;7.614;2023-01-25T07:33:55;0.60;99.90
50570;DHT22;36525;49.398;7.614;2023-01-25T07:36:24;0.60;99.90
50570;DHT22;36525;49.398;7.614;2023-01-25T07:38:53;0.50;99.90
50570;DHT22;36525;49.398;7.614;2023-01-25T07:41:21;0.50;99.90
50570;DHT22;36525;49.398;7.614;2023-01-25T07:43:50;0.50;99.90
50570;DHT22;36525;49.398;7.614;2023-01-25T07:46:18;0.50;99.90
50570;DHT22;36525;49.398;7.614;2023-01-25T07:48:47;0.50;99.90
50570;DHT22;36525;49.398;7.614;2023-01-25T07:51:17;0.50;99.90
50570;DHT22;36525;49.398;7.614;2023-01-25T07:53:49;0.40;99.90
50570;DHT22;36525;49.398;7.614;2023-01-25T07:56:26;0.40;99.90
50570;DHT22;36525;49.398;7.614;2023-01-25T07:58:56;0.50;99.90
50570;DHT22;36525;49.398;7.614;2023-01-25T08:01:27;0.60;99.90
50570;DHT22;36525;49.398;7.614;2023-01-25T08:03:55;0.60;99.90
50570;DHT22;36525;49.398;7.614;2023-01-25T08:06:24;0.60;99.90
50570;DHT22;36525;49.398;7.614;2023-01-25T08:08:57;0.70;99.90
50570;DHT22;36525;49.398;7.614;2023-01-25T08:11:27;0.80;99.90
50570;DHT22;36525;49.398;7.614;2023-01-25T08:13:55;0.70;99.90
50570;DHT22;36525;49.398;7.614;2023-01-25T08:16:25;0.60;99.90
50570;DHT22;36525;49.398;7.614;2023-01-25T08:18:55;0.70;99.90
50570;DHT22;36525;49.398;7.614;2023-01-25T08:21:26;0.60;99.90
50570;DHT22;36525;49.398;7.614;2023-01-25T08:23:57;0.60;99.90
50570;DHT22;36525;49.398;7.614;2023-01-25T08:26:25;0.50;99.90
50570;DHT22;36525;49.398;7.614;2023-01-25T08:28:55;0.60;99.90
50570;DHT22;36525;49.398;7.614;2023-01-25T08:31:28;0.50;99.90
50570;DHT22;36525;49.398;7.614;2023-01-25T08:33:57;0.60;99.90
50570;DHT22;36525;49.398;7.614;2023-01-25T08:36:25;0.50;99.90
50570;DHT22;36525;49.398;7.614;2023-01-25T08:39:05;0.50;99.90
50570;DHT22;36525;49.398;7.614;2023-01-25T08:41:34;0.70;99.90
50570;DHT22;36525;49.398;7.614;2023-01-25T08:44:01;0.60;99.90
50570;DHT22;36525;49.398;7.614;2023-01-25T08:46:31;0.80;99.90
50570;DHT22;36525;49.398;7.614;2023-01-25T08:49:00;0.70;99.90
50570;DHT22;36525;49.398;7.614;2023-01-25T08:51:29;0.70;99.90
50570;DHT22;36525;49.398;7.614;2023-01-25T08:54:04;0.70;99.90
50570;DHT22;36525;49.398;7.614;2023-01-25T08:56:35;0.70;99.90
50570;DHT22;36525;49.398;7.614;2023-01-25T08:59:02;0.70;99.90
50570;DHT22;36525;49.398;7.614;2023-01-25T09:01:30;0.60;99.90
50570;DHT22;36525;49.398;7.614;2023-01-25T09:03:57;0.60;99.90
50570;DHT22;36525;49.398;7.614;2023-01-25T09:06:24;0.70;99.90
50570;DHT22;36525;49.398;7.614;2023-01-25T09:08:51;0.70;99.90
50570;DHT22;36525;49.398;7.614;2023-01-25T09:11:20;0.80;99.90
50570;DHT22;36525;49.398;7.614;2023-01-25T09:13:48;0.60;99.90
50570;DHT22;36525;49.398;7.614;2023-01-25T09:16:18;0.70;99.90
50570;DHT22;36525;49.398;7.614;2023-01-25T09:18:56;0.60;99.90
50570;DHT22;36525;49.398;7.614;2023-01-25T09:21:27;0.60;99.90
50570;DHT22;36525;49.398;7.614;2023-01-25T09:23:55;0.60;99.90
50570;DHT22;36525;49.398;7.614;2023-01-25T09:26:35;0.60;99.90
50570;DHT22;36525;49.398;7.614;2023-01-25T09:29:04;0.70;99.90
50570;DHT22;36525;49.398;7.614;2023-01-25T09:31:33;0.60;99.90
50570;DHT22;36525;49.398;7.614;2023-01-25T09:34:01;0.80;99.90
50570;DHT22;36525;49.398;7.614;2023-01-25T09:36:28;0.70;99.90
50570;DHT22;36525;49.398;7.614;2023-01-25T09:38:55;0.70;99.90
50570;DHT22;36525;49.398;7.614;2023-01-25T09:48:22;1.00;99.90
50570;DHT22;36525;49.398;7.614;2023-01-25T09:51:48;1.00;99.90
50570;DHT22;36525;49.398;7.614;2023-01-25T09:54:17;0.90;99.90
50570;DHT22;36525;49.398;7.614;2023-01-25T09:56:47;0.80;99.90
50570;DHT22;36525;49.398;7.614;2023-01-25T09:59:19;0.70;99.90
50570;DHT22;36525;49.398;7.614;2023-01-25T10:01:59;0.60;99.90
50570;DHT22;36525;49.398;7.614;2023-01-25T10:04:34;0.60;99.90
50570;DHT22;36525;49.398;7.614;2023-01-25T10:10:37;0.60;99.90
50570;DHT22;36525;49.398;7.614;2023-01-25T10:13:16;0.80;99.90
50570;DHT22;36525;49.398;7.614;2023-01-25T10:16:09;0.80;99.90
50570;DHT22;36525;49.398;7.614;2023-01-25T10:18:57;0.80;99.90
50570;DHT22;36525;49.398;7.614;2023-01-25T10:21:37;0.70;99.90
50570;DHT22;36525;49.398;7.614;2023-01-25T10:24:50;0.80;99.90
50570;DHT22;36525;49.398;7.614;2023-01-25T10:28:03;0.80;99.90
50570;DHT22;36525;49.398;7.614;2023-01-25T10:30:47;0.70;99.90
50570;DHT22;36525;49.398;7.614;2023-01-25T10:33:19;0.80;99.90
50570;DHT22;36525;49.398;7.614;2023-01-25T10:35:47;0.90;99.90
50570;DHT22;36525;49.398;7.614;2023-01-25T10:41:39;1.00;99.90
50570;DHT22;36525;49.398;7.614;2023-01-25T10:44:10;0.80;99.90
50570;DHT22;36525;49.398;7.614;2023-01-25T10:47:16;0.90;99.90
50570;DHT22;36525;49.398;7.614;2023-01-25T10:49:50;0.90;99.90
50570;DHT22;36525;49.398;7.614;2023-01-25T10:52:25;0.90;99.90
50570;DHT22;36525;49.398;7.614;2023-01-25T10:55:13;0.90;99.90
50570;DHT22;36525;49.398;7.614;2023-01-25T10:57:49;0.90;99.90
50570;DHT22;36525;49.398;7.614;2023-01-25T11:00:31;0.90;99.90
50570;DHT22;36525;49.398;7.614;2023-01-25T11:03:02;0.90;99.90
50570;DHT22;36525;49.398;7.614;2023-01-25T11:08:31;0.90;99.90
50570;DHT22;36525;49.398;7.614;2023-01-25T11:11:25;0.90;99.90
50570;DHT22;36525;49.398;7.614;2023-01-25T11:13:57;0.80;99.90
50570;DHT22;36525;49.398;7.614;2023-01-25T11:16:38;0.80;99.90
50570;DHT22;36525;49.398;7.614;2023-01-25T11:19:30;0.90;99.90
50570;DHT22;36525;49.398;7.614;2023-01-25T11:22:00;0.70;99.90
50570;DHT22;36525;49.398;7.614;2023-01-25T11:24:32;0.60;99.90
50570;DHT22;36525;49.398;7.614;2023-01-25T11:27:24;0.50;99.90
50570;DHT22;36525;49.398;7.614;2023-01-25T11:30:06;0.80;99.90
50570;DHT22;36525;49.398;7.614;2023-01-25T11:32:39;0.70;99.90
50570;DHT22;36525;49.398;7.614;2023-01-25T11:35:15;0.50;99.90
50570;DHT22;36525;49.398;7.614;2023-01-25T11:40:48;0.40;99.90
50570;DHT22;36525;49.398;7.614;2023-01-25T11:46:26;0.40;99.90
50570;DHT22;36525;49.398;7.614;2023-01-25T11:55:00;0.40;99.90
50570;DHT22;36525;49.398;7.614;2023-01-25T12:12:09;0.50;99.90
50570;DHT22;36525;49.398;7.614;2023-01-25T12:14:58;0.40;99.90
50570;DHT22;36525;49.398;7.614;2023-01-25T12:20:41;0.60;99.90
50570;DHT22;36525;49.398;7.614;2023-01-25T12:29:45;0.90;99.90
50570;DHT22;36525;49.398;7.614;2023-01-25T12:32:24;1.10;99.90
50570;DHT22;36525;49.398;7.614;2023-01-25T12:37:47;1.00;99.90
50570;DHT22;36525;49.398;7.614;2023-01-25T12:40:21;1.00;99.90
50570;DHT22;36525;49.398;7.614;2023-01-25T12:43:00;0.80;99.90
50570;DHT22;36525;49.398;7.614;2023-01-25T12:45:30;0.90;99.90
50570;DHT22;36525;49.398;7.614;2023-01-25T12:51:14;1.00;99.90
50570;DHT22;36525;49.398;7.614;2023-01-25T12:53:44;0.90;99.90
50570;DHT22;36525;49.398;7.614;2023-01-25T12:56:27;0.90;99.90
50570;DHT22;36525;49.398;7.614;2023-01-25T12:59:23;0.90;99.90
50570;DHT22;36525;49.398;7.614;2023-01-25T13:03:10;0.80;99.90
50570;DHT22;36525;49.398;7.614;2023-01-25T13:11:42;0.70;99.90
50570;DHT22;36525;49.398;7.614;2023-01-25T13:16:44;1.10;99.90
50570;DHT22;36525;49.398;7.614;2023-01-25T13:21:58;1.20;99.90
50570;DHT22;36525;49.398;7.614;2023-01-25T13:24:28;1.20;99.90
50570;DHT22;36525;49.398;7.614;2023-01-25T13:37:33;0.90;99.90
50570;DHT22;36525;49.398;7.614;2023-01-25T13:40:27;0.90;99.90
50570;DHT22;36525;49.398;7.614;2023-01-25T13:45:40;1.10;99.90
50570;DHT22;36525;49.398;7.614;2023-01-25T13:50:38;1.10;99.90
50570;DHT22;36525;49.398;7.614;2023-01-25T13:55:47;0.80;99.90
50570;DHT22;36525;49.398;7.614;2023-01-25T13:58:33;0.50;99.90
50570;DHT22;36525;49.398;7.614;2023-01-25T14:03:48;0.40;99.90
50570;DHT22;36525;49.398;7.614;2023-01-25T14:06:26;0.30;99.90
50570;DHT22;36525;49.398;7.614;2023-01-25T14:08:57;0.30;99.90
50570;DHT22;36525;49.398;7.614;2023-01-25T14:11:28;0.40;99.90
50570;DHT22;36525;49.398;7.614;2023-01-25T14:19:38;0.40;99.90
50570;DHT22;36525;49.398;7.614;2023-01-25T14:22:16;0.50;99.90
50570;DHT22;36525;49.398;7.614;2023-01-25T14:24:59;0.60;99.90
50570;DHT22;36525;49.398;7.614;2023-01-25T14:27:36;0.50;99.90
50570;DHT22;36525;49.398;7.614;2023-01-25T14:32:43;0.40;99.90
50570;DHT22;36525;49.398;7.614;2023-01-25T14:41:35;0.40;99.90
50570;DHT22;36525;49.398;7.614;2023-01-25T14:44:00;0.60;99.90
50570;DHT22;36525;49.398;7.614;2023-01-25T14:54:43;0.40;99.90
50570;DHT22;36525;49.398;7.614;2023-01-25T14:57:36;0.50;99.90
50570;DHT22;36525;49.398;7.614;2023-01-25T15:02:58;0.60;99.90
50570;DHT22;36525;49.398;7.614;2023-01-25T15:05:34;0.50;99.90
50570;DHT22;36525;49.398;7.614;2023-01-25T15:10:34;0.40;99.90
50570;DHT22;36525;49.398;7.614;2023-01-25T15:16:00;0.60;99.90
50570;DHT22;36525;49.398;7.614;2023-01-25T15:21:23;0.30;99.90
50570;DHT22;36525;49.398;7.614;2023-01-25T15:23:52;0.20;99.90
50570;DHT22;36525;49.398;7.614;2023-01-25T15:26:25;0.40;99.90
50570;DHT22;36525;49.398;7.614;2023-01-25T15:28:59;0.50;99.90
50570;DHT22;36525;49.398;7.614;2023-01-25T15:31:30;0.60;99.90
50570;DHT22;36525;49.398;7.614;2023-01-25T15:33:59;0.40;99.90
50570;DHT22;36525;49.398;7.614;2023-01-25T15:36:28;0.50;99.90
50570;DHT22;36525;49.398;7.614;2023-01-25T15:38:56;0.40;99.90
50570;DHT22;36525;49.398;7.614;2023-01-25T15:41:23;0.40;99.90
50570;DHT22;36525;49.398;7.614;2023-01-25T15:43:51;0.50;99.90
50570;DHT22;36525;49.398;7.614;2023-01-25T15:46:25;0.40;99.90
50570;DHT22;36525;49.398;7.614;2023-01-25T15:48:54;0.30;99.90
50570;DHT22;36525;49.398;7.614;2023-01-25T15:51:22;0.30;99.90
50570;DHT22;36525;49.398;7.614;2023-01-25T15:53:49;0.30;99.90
50570;DHT22;36525;49.398;7.614;2023-01-25T15:58:53;0.10;99.90
50570;DHT22;36525;49.398;7.614;2023-01-25T16:01:28;0.00;99.90
50570;DHT22;36525;49.398;7.614;2023-01-25T16:03:57;-0.10;99.90
50570;DHT22;36525;49.398;7.614;2023-01-25T16:06:46;-0.10;99.90
50570;DHT22;36525;49.398;7.614;2023-01-25T16:09:25;-0.20;99.90
50570;DHT22;36525;49.398;7.614;2023-01-25T16:12:00;-0.20;99.90
50570;DHT22;36525;49.398;7.614;2023-01-25T16:14:28;-0.20;99.90
50570;DHT22;36525;49.398;7.614;2023-01-25T16:16:59;-0.20;99.90
50570;DHT22;36525;49.398;7.614;2023-01-25T16:19:29;-0.30;99.90
50570;DHT22;36525;49.398;7.614;2023-01-25T16:21:56;-0.30;99.90
50570;DHT22;36525;49.398;7.614;2023-01-25T16:24:24;-0.30;99.90
50570;DHT22;36525;49.398;7.614;2023-01-25T16:26:53;-0.20;99.90
50570;DHT22;36525;49.398;7.614;2023-01-25T16:29:21;-0.10;99.90
50570;DHT22;36525;49.398;7.614;2023-01-25T16:31:49;-0.10;99.90
50570;DHT22;36525;49.398;7.614;2023-01-25T16:34:17;-0.10;99.90
50570;DHT22;36525;49.398;7.614;2023-01-25T16:36:45;0.00;99.90
50570;DHT22;36525;49.398;7.614;2023-01-25T16:39:21;0.00;99.90
50570;DHT22;36525;49.398;7.614;2023-01-25T16:41:53;-0.10;99.90
50570;DHT22;36525;49.398;7.614;2023-01-25T16:44:23;-0.10;99.90
50570;DHT22;36525;49.398;7.614;2023-01-25T16:46:50;-0.10;99.90
50570;DHT22;36525;49.398;7.614;2023-01-25T16:49:20;0.00;99.90
50570;DHT22;36525;49.398;7.614;2023-01-25T16:51:48;0.00;99.90
50570;DHT22;36525;49.398;7.614;2023-01-25T16:54:17;-0.10;99.90
50570;DHT22;36525;49.398;7.614;2023-01-25T16:56:48;-0.10;99.90
50570;DHT22;36525;49.398;7.614;2023-01-25T16:59:17;-0.20;99.90
50570;DHT22;36525;49.398;7.614;2023-01-25T17:01:47;-0.10;99.90
50570;DHT22;36525;49.398;7.614;2023-01-25T17:04:15;-0.20;99.90
50570;DHT22;36525;49.398;7.614;2023-01-25T17:06:45;-0.10;99.90
50570;DHT22;36525;49.398;7.614;2023-01-25T17:09:15;0.00;99.90
50570;DHT22;36525;49.398;7.614;2023-01-25T17:11:52;0.00;99.90
50570;DHT22;36525;49.398;7.614;2023-01-25T17:14:20;0.10;99.90
50570;DHT22;36525;49.398;7.614;2023-01-25T17:16:48;0.10;99.90
50570;DHT22;36525;49.398;7.614;2023-01-25T17:19:18;0.00;99.90
50570;DHT22;36525;49.398;7.614;2023-01-25T17:21:46;0.10;99.90
50570;DHT22;36525;49.398;7.614;2023-01-25T17:24:16;0.10;99.90
50570;DHT22;36525;49.398;7.614;2023-01-25T17:26:45;0.10;99.90
50570;DHT22;36525;49.398;7.614;2023-01-25T17:29:12;0.10;99.90
50570;DHT22;36525;49.398;7.614;2023-01-25T17:31:39;0.10;99.90
50570;DHT22;36525;49.398;7.614;2023-01-25T17:34:11;0.10;99.90
50570;DHT22;36525;49.398;7.614;2023-01-25T17:36:39;0.10;99.90
50570;DHT22;36525;49.398;7.614;2023-01-25T17:39:06;0.10;99.90
50570;DHT22;36525;49.398;7.614;2023-01-25T17:41:33;0.00;99.90
50570;DHT22;36525;49.398;7.614;2023-01-25T17:44:01;0.10;99.90
50570;DHT22;36525;49.398;7.614;2023-01-25T17:46:30;0.20;99.90
50570;DHT22;36525;49.398;7.614;2023-01-25T17:49:04;0.10;99.90
50570;DHT22;36525;49.398;7.614;2023-01-25T17:51:33;-0.10;99.90
50570;DHT22;36525;49.398;7.614;2023-01-25T17:54:02;-0.20;99.90
50570;DHT22;36525;49.398;7.614;2023-01-25T17:56:31;-0.10;99.90
50570;DHT22;36525;49.398;7.614;2023-01-25T17:58:59;-0.10;99.90
50570;DHT22;36525;49.398;7.614;2023-01-25T18:01:28;0.00;99.90
50570;DHT22;36525;49.398;7.614;2023-01-25T18:03:57;0.00;99.90
50570;DHT22;36525;49.398;7.614;2023-01-25T18:06:28;0.00;99.90
50570;DHT22;36525;49.398;7.614;2023-01-25T18:08:58;-0.10;99.90
50570;DHT22;36525;49.398;7.614;2023-01-25T18:11:30;-0.10;99.90
50570;DHT22;36525;49.398;7.614;2023-01-25T18:14:01;-0.10;99.90
50570;DHT22;36525;49.398;7.614;2023-01-25T18:16:31;-0.20;99.90
50570;DHT22;36525;49.398;7.614;2023-01-25T18:19:02;-0.20;99.90
50570;DHT22;36525;49.398;7.614;2023-01-25T18:21:31;-0.20;99.90
50570;DHT22;36525;49.398;7.614;2023-01-25T18:24:06;-0.10;99.90
50570;DHT22;36525;49.398;7.614;2023-01-25T18:27:03;-0.20;99.90
50570;DHT22;36525;49.398;7.614;2023-01-25T18:30:00;-0.20;99.90
50570;DHT22;36525;49.398;7.614;2023-01-25T18:32:30;-0.30;99.90
50570;DHT22;36525;49.398;7.614;2023-01-25T18:35:01;-0.20;99.90
50570;DHT22;36525;49.398;7.614;2023-01-25T18:37:32;-0.10;99.90